createdAt,value
2022-08-23T00:05:34.393Z,100281.78
2022-08-23T00:08:02.617Z,100281.63
2022-08-23T00:10:30.673Z,100288.34
2022-08-23T00:12:58.887Z,100287.16
2022-08-23T00:15:27.067Z,100289.31
2022-08-23T00:17:55.275Z,100279.03
2022-08-23T00:37:10.177Z,100267.19
2022-08-23T00:39:38.758Z,100272.13
2022-08-23T00:42:25.393Z,100270.16
2022-08-23T00:45:11.254Z,100272.25
2022-08-23T00:47:43.239Z,100262.56
2022-08-23T00:50:24.314Z,100270.38
2022-08-23T00:53:03.332Z,100270.50
2022-08-23T00:55:32.129Z,100277.88
2022-08-23T00:58:00.751Z,100277.03
2022-08-23T01:00:29.768Z,100279.66
2022-08-23T01:02:58.065Z,100284.31
2022-08-23T01:05:32.223Z,100280.16
2022-08-23T01:08:02.059Z,100286.75
2022-08-23T01:10:48.952Z,100286.34
2022-08-23T01:13:21.362Z,100283.72
2022-08-23T01:15:52.870Z,100289.13
2022-08-23T01:18:25.450Z,100292.22
2022-08-23T01:21:01.122Z,100291.78
2022-08-23T01:23:37.662Z,100289.69
2022-08-23T01:26:07.080Z,100295.09
2022-08-23T01:28:40.866Z,100291.72
2022-08-23T01:31:15.622Z,100302.38
2022-08-23T01:33:47.280Z,100297.56
2022-08-23T01:36:17.210Z,100288.06
2022-08-23T01:38:47.809Z,100293.69
2022-08-23T01:41:15.775Z,100290.88
2022-08-23T01:43:43.896Z,100296.59
2022-08-23T01:46:15.009Z,100283.69
2022-08-23T01:48:44.542Z,100287.34
2022-08-23T01:51:13.898Z,100286.63
2022-08-23T01:53:42.028Z,100295.63
2022-08-23T01:56:11.424Z,100291.47
2022-08-23T01:58:40.977Z,100296.59
2022-08-23T02:01:10.327Z,100290.16
2022-08-23T02:03:38.839Z,100294.59
2022-08-23T02:06:07.461Z,100302.53
2022-08-23T02:08:53.610Z,100301.22
2022-08-23T02:11:29.835Z,100304.19
2022-08-23T02:14:00.929Z,100308.84
2022-08-23T02:16:37.884Z,100306.56
2022-08-23T02:19:09.318Z,100310.53
2022-08-23T02:21:39.003Z,100321.75
2022-08-23T02:24:09.474Z,100319.97
2022-08-23T02:26:40.732Z,100324.81
2022-08-23T02:29:15.818Z,100322.56
2022-08-23T02:31:45.799Z,100330.09
2022-08-23T02:34:15.809Z,100322.19
2022-08-23T02:36:46.296Z,100338.59
2022-08-23T02:39:18.123Z,100326.44
2022-08-23T02:41:48.106Z,100327.69
2022-08-23T02:44:16.349Z,100334.53
2022-08-23T02:46:45.372Z,100335.50
2022-08-23T02:49:15.032Z,100337.94
2022-08-23T02:51:43.762Z,100338.19
2022-08-23T02:54:11.810Z,100334.78
2022-08-23T02:56:40.501Z,100339.41
2022-08-23T02:59:10.777Z,100336.44
2022-08-23T03:01:40.661Z,100341.22
2022-08-23T03:04:31.341Z,100341.03
2022-08-23T03:06:59.489Z,100339.66
2022-08-23T03:09:28.268Z,100338.28
2022-08-23T03:11:56.515Z,100339.84
2022-08-23T03:14:27.497Z,100345.53
2022-08-23T03:16:58.324Z,100340.16
2022-08-23T03:19:26.821Z,100337.47
2022-08-23T03:21:54.930Z,100345.75
2022-08-23T03:24:23.731Z,100341.09
2022-08-23T03:26:52.061Z,100345.09
2022-08-23T03:29:20.502Z,100349.06
2022-08-23T03:32:04.222Z,100352.94
2022-08-23T03:34:36.372Z,100345.50
2022-08-23T03:37:06.200Z,100338.78
2022-08-23T03:39:34.902Z,100346.75
2022-08-23T03:42:03.396Z,100347.69
2022-08-23T03:44:34.098Z,100348.75
2022-08-23T03:47:05.877Z,100347.72
2022-08-23T03:49:34.186Z,100348.06
2022-08-23T03:52:02.435Z,100355.56
2022-08-23T03:54:33.046Z,100344.25
2022-08-23T03:57:03.830Z,100352.25
2022-08-23T03:59:36.938Z,100359.16
2022-08-23T04:02:10.938Z,100375.47
2022-08-23T04:04:39.886Z,100362.38
2022-08-23T04:07:32.126Z,100371.09
2022-08-23T04:10:00.155Z,100366.66
2022-08-23T04:12:33.973Z,100372.53
2022-08-23T04:15:02.787Z,100377.56
2022-08-23T04:17:34.582Z,100373.88
2022-08-23T04:20:02.826Z,100374.47
2022-08-23T04:22:33.455Z,100378.31
2022-08-23T04:25:02.925Z,100381.69
2022-08-23T04:27:31.736Z,100380.69
2022-08-23T04:29:59.854Z,100392.88
2022-08-23T04:32:30.067Z,100383.25
2022-08-23T04:35:04.516Z,100398.97
2022-08-23T04:37:35.247Z,100398.88
2022-08-23T04:40:22.522Z,100407.84
2022-08-23T04:42:52.146Z,100402.72
2022-08-23T04:45:20.295Z,100404.63
2022-08-23T04:47:51.657Z,100402.56
2022-08-23T04:50:21.670Z,100405.38
2022-08-23T04:53:29.157Z,100407.44
2022-08-23T04:56:11.699Z,100416.69
2022-08-23T04:58:41.143Z,100414.00
2022-08-23T05:01:11.609Z,100413.44
2022-08-23T05:03:40.973Z,100416.78
2022-08-23T05:06:10.502Z,100426.28
2022-08-23T05:08:41.329Z,100426.66
2022-08-23T05:11:11.464Z,100426.00
2022-08-23T05:13:41.604Z,100429.97
2022-08-23T05:16:11.857Z,100433.84
2022-08-23T05:18:45.683Z,100436.03
2022-08-23T05:21:17.539Z,100444.59
2022-08-23T05:23:51.042Z,100444.66
2022-08-23T05:26:24.205Z,100452.34
2022-08-23T05:28:52.408Z,100455.00
2022-08-23T05:31:27.501Z,100461.63
2022-08-23T05:33:59.729Z,100456.88
2022-08-23T05:36:35.995Z,100459.66
2022-08-23T05:39:05.176Z,100463.34
2022-08-23T05:41:38.671Z,100467.28
2022-08-23T05:44:10.336Z,100467.81
2022-08-23T05:46:43.502Z,100474.63
2022-08-23T05:49:22.124Z,100477.97
2022-08-23T05:51:53.595Z,100477.75
2022-08-23T05:54:25.412Z,100478.97
2022-08-23T05:57:13.475Z,100475.72
2022-08-23T05:59:41.837Z,100485.72
2022-08-23T06:02:10.922Z,100484.53
2022-08-23T06:04:39.028Z,100490.41
2022-08-23T06:07:09.817Z,100497.84
2022-08-23T06:09:38.975Z,100499.50
2022-08-23T06:12:07.332Z,100500.19
2022-08-23T06:14:35.458Z,100498.78
2022-08-23T06:17:03.936Z,100499.69
2022-08-23T06:19:32.092Z,100503.19
2022-08-23T06:22:13.753Z,100493.16
2022-08-23T06:24:43.474Z,100508.31
2022-08-23T06:27:17.038Z,100504.41
2022-08-23T06:29:45.987Z,100511.22
2022-08-23T06:32:32.250Z,100514.44
2022-08-23T06:35:37.700Z,100510.69
2022-08-23T06:38:23.270Z,100521.56
2022-08-23T06:41:06.629Z,100511.16
2022-08-23T06:44:08.419Z,100521.88
2022-08-23T06:46:57.301Z,100514.97
2022-08-23T06:49:27.636Z,100517.75
2022-08-23T06:51:57.840Z,100515.06
2022-08-23T06:54:59.601Z,100517.41
2022-08-23T06:57:54.477Z,100519.22
2022-08-23T07:00:43.504Z,100525.59
2022-08-23T07:03:18.891Z,100514.44
2022-08-23T07:06:12.630Z,100522.66
2022-08-23T07:08:41.979Z,100524.00
2022-08-23T07:11:12.329Z,100531.56
2022-08-23T07:13:41.388Z,100538.13
2022-08-23T07:16:09.412Z,100539.06
2022-08-23T07:18:37.679Z,100541.09
2022-08-23T07:21:07.623Z,100537.06
2022-08-23T07:23:38.310Z,100535.13
2022-08-23T07:26:11.164Z,100538.38
2022-08-23T07:28:42.156Z,100539.16
2022-08-23T07:31:14.737Z,100536.16
2022-08-23T07:33:45.328Z,100535.09
2022-08-23T07:36:20.455Z,100544.47
2022-08-23T07:38:51.521Z,100539.94
2022-08-23T07:41:21.420Z,100542.78
2022-08-23T07:43:51.280Z,100550.09
2022-08-23T07:46:20.397Z,100546.25
2022-08-23T07:48:54.449Z,100538.47
2022-08-23T07:51:32.155Z,100553.66
2022-08-23T07:54:02.472Z,100550.03
2022-08-23T07:56:30.693Z,100544.88
2022-08-23T07:59:15.759Z,100545.25
2022-08-23T08:01:56.812Z,100546.09
2022-08-23T08:04:25.806Z,100544.78
2022-08-23T08:07:17.225Z,100553.91
2022-08-23T08:09:45.541Z,100552.66
2022-08-23T08:12:15.868Z,100548.78
2022-08-23T08:14:48.086Z,100548.94
2022-08-23T08:17:18.366Z,100553.59
2022-08-23T08:20:06.970Z,100552.50
2022-08-23T08:22:49.941Z,100547.75
2022-08-23T08:25:48.027Z,100552.94
2022-08-23T08:28:19.706Z,100558.97
2022-08-23T08:30:49.262Z,100559.69
2022-08-23T08:33:17.336Z,100561.06
2022-08-23T08:35:59.196Z,100561.38
2022-08-23T08:38:29.084Z,100569.22
2022-08-23T08:41:10.456Z,100570.44
2022-08-23T08:43:56.763Z,100573.28
2022-08-23T08:46:38.349Z,100572.16
2022-08-23T08:49:09.333Z,100566.25
2022-08-23T08:51:45.408Z,100566.00
2022-08-23T08:54:18.197Z,100563.75
2022-08-23T08:56:54.619Z,100572.81
2022-08-23T08:59:43.765Z,100563.56
2022-08-23T09:02:31.897Z,100565.66
2022-08-23T09:05:03.943Z,100565.59
2022-08-23T09:07:45.289Z,100566.72
2022-08-23T09:10:48.065Z,100569.63
2022-08-23T09:13:36.775Z,100563.47
2022-08-23T09:16:18.540Z,100563.53
2022-08-23T09:18:49.740Z,100566.72
2022-08-23T09:21:19.026Z,100566.66
2022-08-23T09:24:00.665Z,100553.47
2022-08-23T09:26:43.853Z,100558.03
2022-08-23T09:29:22.340Z,100556.13
2022-08-23T09:31:54.976Z,100560.63
2022-08-23T09:34:44.267Z,100561.34
2022-08-23T09:37:19.755Z,100562.81
2022-08-23T09:39:51.372Z,100559.91
2022-08-23T09:42:31.428Z,100562.06
2022-08-23T09:45:01.022Z,100557.78
2022-08-23T09:47:34.547Z,100558.13
2022-08-23T09:50:24.309Z,100552.44
2022-08-23T09:52:56.957Z,100558.94
2022-08-23T09:55:32.726Z,100558.50
2022-08-23T09:58:03.012Z,100548.50
2022-08-23T10:00:34.917Z,100551.31
2022-08-23T10:03:23.479Z,100546.31
2022-08-23T10:05:57.310Z,100549.19
2022-08-23T10:08:29.501Z,100543.34
2022-08-23T10:11:06.869Z,100539.72
2022-08-23T10:13:39.724Z,100534.78
2022-08-23T10:16:18.619Z,100536.22
2022-08-23T10:19:08.090Z,100535.31
2022-08-23T10:21:43.107Z,100524.56
2022-08-23T10:24:24.703Z,100522.19
2022-08-23T10:27:28.093Z,100524.94
2022-08-23T10:30:02.963Z,100514.66
2022-08-23T10:32:46.001Z,100515.72
2022-08-23T10:35:29.223Z,100507.94
2022-08-23T10:38:29.758Z,100512.41
2022-08-23T10:41:08.379Z,100511.91
2022-08-23T10:43:43.905Z,100511.03
2022-08-23T10:46:12.924Z,100511.16
2022-08-23T10:48:48.832Z,100513.84
2022-08-23T10:51:23.302Z,100510.06
2022-08-23T10:54:07.889Z,100509.56
2022-08-23T10:56:44.316Z,100508.59
2022-08-23T10:59:23.891Z,100504.00
2022-08-23T11:01:58.926Z,100502.59
2022-08-23T11:04:35.146Z,100504.69
2022-08-23T11:07:20.534Z,100499.75
2022-08-23T11:09:58.162Z,100499.63
2022-08-23T11:12:33.877Z,100489.00
2022-08-23T11:15:33.017Z,100485.78
2022-08-23T11:18:05.054Z,100488.88
2022-08-23T11:21:05.773Z,100495.47
2022-08-23T11:23:50.353Z,100487.63
2022-08-23T11:27:07.599Z,100487.13
2022-08-23T11:29:45.278Z,100485.28
2022-08-23T11:32:46.379Z,100485.03
2022-08-23T11:35:43.234Z,100480.47
2022-08-23T11:38:13.751Z,100479.47
2022-08-23T11:41:13.459Z,100478.59
2022-08-23T11:43:44.106Z,100477.56
2022-08-23T11:46:46.291Z,100474.34
2022-08-23T11:49:49.705Z,100474.13
2022-08-23T11:52:32.403Z,100472.94
2022-08-23T11:55:20.618Z,100466.94
2022-08-23T11:58:05.836Z,100470.38
2022-08-23T12:00:55.120Z,100464.13
2022-08-23T12:03:33.307Z,100463.53
2022-08-23T12:06:12.813Z,100460.16
2022-08-23T12:08:55.287Z,100455.59
2022-08-23T12:11:26.971Z,100448.53
2022-08-23T12:13:59.451Z,100453.78
2022-08-23T12:16:36.295Z,100454.28
2022-08-23T12:19:13.713Z,100449.75
2022-08-23T12:21:52.080Z,100447.88
2022-08-23T12:24:26.978Z,100444.38
2022-08-23T12:27:12.782Z,100452.63
2022-08-23T12:29:53.745Z,100450.44
2022-08-23T12:32:33.966Z,100454.91
2022-08-23T12:35:21.735Z,100441.28
2022-08-23T12:37:57.742Z,100438.78
2022-08-23T12:40:32.225Z,100443.34
2022-08-23T12:43:06.747Z,100439.19
2022-08-23T12:45:40.892Z,100441.47
2022-08-23T12:48:12.600Z,100432.63
2022-08-23T12:50:45.098Z,100432.94
2022-08-23T12:53:15.482Z,100431.09
2022-08-23T12:55:46.877Z,100433.56
2022-08-23T12:58:16.307Z,100430.13
2022-08-23T13:00:54.419Z,100423.19
2022-08-23T13:03:27.167Z,100420.41
2022-08-23T13:06:02.222Z,100419.69
2022-08-23T13:08:43.482Z,100416.56
2022-08-23T13:11:14.373Z,100417.25
2022-08-23T13:13:44.406Z,100420.66
2022-08-23T13:16:28.009Z,100427.63
2022-08-23T13:19:11.007Z,100420.63
2022-08-23T13:21:40.393Z,100416.72
2022-08-23T13:24:37.771Z,100420.09
2022-08-23T13:27:20.602Z,100411.75
2022-08-23T13:29:53.688Z,100416.84
2022-08-23T13:32:29.215Z,100411.84
2022-08-23T13:35:28.925Z,100418.25
2022-08-23T13:38:02.255Z,100411.50
2022-08-23T13:40:33.251Z,100413.69
2022-08-23T13:43:04.322Z,100411.41
2022-08-23T13:45:35.380Z,100403.84
2022-08-23T13:48:10.211Z,100403.59
2022-08-23T13:50:39.920Z,100403.28
2022-08-23T13:53:17.491Z,100400.22
2022-08-23T13:55:49.873Z,100395.28
2022-08-23T13:58:27.777Z,100397.00
2022-08-23T14:00:58.834Z,100389.00
2022-08-23T14:03:32.044Z,100399.13
2022-08-23T14:06:00.107Z,100386.47
2022-08-23T14:08:29.537Z,100392.34
2022-08-23T14:10:57.572Z,100404.16
2022-08-23T14:13:30.015Z,100391.31
2022-08-23T14:21:39.357Z,100388.47
2022-08-23T14:24:08.885Z,100390.50
2022-08-23T14:26:36.954Z,100388.09
2022-08-23T14:29:05.802Z,100382.44
2022-08-23T14:31:33.944Z,100381.72
2022-08-23T14:34:02.477Z,100379.34
2022-08-23T14:36:30.746Z,100383.38
2022-08-23T14:38:59.043Z,100381.41
2022-08-23T14:41:29.280Z,100378.59
2022-08-23T14:43:57.549Z,100384.91
2022-08-23T14:46:25.825Z,100376.59
2022-08-23T14:48:53.985Z,100377.13
2022-08-23T14:51:27.540Z,100375.50
2022-08-23T14:53:57.261Z,100372.78
2022-08-23T14:56:25.967Z,100375.31
2022-08-23T14:58:55.446Z,100377.03
2022-08-23T15:01:24.253Z,100374.06
2022-08-23T15:03:52.783Z,100372.22
2022-08-23T15:06:21.847Z,100371.03
2022-08-23T15:08:50.289Z,100373.91
2022-08-23T15:14:08.112Z,100371.28
2022-08-23T15:16:36.394Z,100368.34
2022-08-23T15:19:05.217Z,100368.63
2022-08-23T15:21:33.749Z,100362.34
2022-08-23T15:24:02.609Z,100359.38
2022-08-23T15:26:32.394Z,100356.91
2022-08-23T15:29:00.702Z,100360.84
2022-08-23T15:31:30.450Z,100352.38
2022-08-23T15:33:59.560Z,100344.22
2022-08-23T15:36:27.985Z,100354.03
2022-08-23T15:38:56.090Z,100351.53
2022-08-23T15:41:24.521Z,100354.63
2022-08-23T15:43:52.514Z,100351.63
2022-08-23T15:46:23.543Z,100347.13
2022-08-23T15:48:58.109Z,100347.13
2022-08-23T15:51:26.879Z,100344.69
2022-08-23T15:53:55.255Z,100348.81
2022-08-23T15:56:31.036Z,100348.13
2022-08-23T15:58:59.148Z,100341.97
2022-08-23T16:01:30.129Z,100353.53
2022-08-23T16:04:02.125Z,100350.03
2022-08-23T16:06:35.808Z,100347.75
2022-08-23T16:09:06.419Z,100344.25
2022-08-23T16:11:34.501Z,100352.03
2022-08-23T16:14:02.567Z,100348.66
2022-08-23T16:16:32.732Z,100348.09
2022-08-23T16:19:02.219Z,100351.69
2022-08-23T16:21:31.884Z,100346.69
2022-08-23T16:24:00.655Z,100351.66
2022-08-23T16:26:35.289Z,100342.34
2022-08-23T16:29:07.018Z,100336.00
2022-08-23T16:31:39.370Z,100342.53
2022-08-23T16:34:11.785Z,100349.69
2022-08-23T16:36:42.368Z,100338.91
2022-08-23T16:39:12.603Z,100339.63
2022-08-23T16:41:40.556Z,100339.59
2022-08-23T16:44:08.945Z,100339.59
2022-08-23T16:46:37.317Z,100342.56
2022-08-23T16:49:05.391Z,100350.47
2022-08-23T16:51:34.677Z,100349.72
2022-08-23T16:54:03.460Z,100351.16
2022-08-23T16:56:32.339Z,100352.59
2022-08-23T16:59:00.412Z,100354.06
2022-08-23T17:01:29.569Z,100356.22
2022-08-23T17:03:57.769Z,100355.50
2022-08-23T17:06:26.393Z,100351.88
2022-08-23T17:08:55.741Z,100355.47
2022-08-23T17:11:23.773Z,100353.31
2022-08-23T17:13:58.248Z,100361.84
2022-08-23T17:16:33.313Z,100356.75
2022-08-23T17:19:01.460Z,100361.69
2022-08-23T17:21:29.740Z,100358.81
2022-08-23T17:23:59.896Z,100356.59
2022-08-23T17:26:27.958Z,100362.16
2022-08-23T17:28:56.437Z,100360.56
2022-08-23T17:31:24.492Z,100361.91
2022-08-23T17:33:52.621Z,100365.28
2022-08-23T17:36:29.645Z,100365.91
2022-08-23T17:38:59.295Z,100371.28
2022-08-23T17:41:28.318Z,100365.53
2022-08-23T17:43:57.414Z,100372.78
2022-08-23T17:46:25.583Z,100382.28
2022-08-23T17:48:53.892Z,100385.63
2022-08-23T17:51:21.991Z,100382.44
2022-08-23T17:53:50.131Z,100379.91
2022-08-23T17:56:19.547Z,100383.03
2022-08-23T17:58:47.795Z,100381.34
2022-08-23T18:01:15.976Z,100388.78
2022-08-23T18:03:44.479Z,100395.53
2022-08-23T18:06:16.664Z,100399.34
2022-08-23T18:08:45.681Z,100397.34
2022-08-23T18:11:14.153Z,100400.44
2022-08-23T18:13:43.655Z,100403.53
2022-08-23T18:16:13.860Z,100403.78
2022-08-23T18:18:42.507Z,100404.03
2022-08-23T18:21:12.949Z,100410.63
2022-08-23T18:23:41.155Z,100416.50
2022-08-23T18:26:32.556Z,100410.34
2022-08-23T18:29:02.802Z,100417.56
2022-08-23T18:31:31.216Z,100423.41
2022-08-23T18:34:00.623Z,100419.41
2022-08-23T18:36:29.888Z,100420.38
2022-08-23T18:38:58.550Z,100432.69
2022-08-23T18:41:26.660Z,100424.44
2022-08-23T18:43:54.992Z,100432.09
2022-08-23T18:46:24.347Z,100434.88
2022-08-23T18:48:53.376Z,100433.13
2022-08-23T18:51:22.114Z,100443.47
2022-08-23T18:53:50.372Z,100447.25
2022-08-23T18:56:18.447Z,100448.31
2022-08-23T18:58:47.531Z,100450.28
2022-08-23T19:01:28.381Z,100449.78
2022-08-23T19:03:58.351Z,100456.53
2022-08-23T19:06:26.857Z,100463.25
2022-08-23T19:08:55.608Z,100458.22
2022-08-23T19:11:24.855Z,100468.09
2022-08-23T19:13:52.888Z,100475.31
2022-08-23T19:16:22.267Z,100467.03
2022-08-23T19:18:51.758Z,100473.16
2022-08-23T19:21:21.563Z,100476.72
2022-08-23T19:23:51.742Z,100470.84
2022-08-23T19:26:22.010Z,100477.84
2022-08-23T19:28:50.450Z,100473.41
2022-08-23T19:31:18.526Z,100481.44
2022-08-23T19:33:46.597Z,100484.28
2022-08-23T19:36:36.022Z,100484.34
2022-08-23T19:39:05.268Z,100485.00
2022-08-23T19:41:33.779Z,100482.06
2022-08-23T19:44:02.493Z,100483.97
2022-08-23T19:46:31.155Z,100483.25
2022-08-23T19:48:59.262Z,100482.97
2022-08-23T19:51:28.703Z,100486.25
2022-08-23T19:54:10.844Z,100489.50
2022-08-23T19:56:42.294Z,100492.53
2022-08-23T19:59:14.180Z,100492.00
2022-08-23T20:01:42.547Z,100494.81
2022-08-23T20:04:10.615Z,100491.31
2022-08-23T20:06:40.038Z,100502.47
2022-08-23T20:09:09.297Z,100497.81
2022-08-23T20:11:37.449Z,100501.78
2022-08-23T20:14:06.692Z,100507.34
2022-08-23T20:16:36.158Z,100505.00
2022-08-23T20:19:07.151Z,100506.69
2022-08-23T20:21:35.203Z,100506.69
2022-08-23T20:24:04.550Z,100502.81
2022-08-23T20:26:33.676Z,100507.09
2022-08-23T20:29:02.519Z,100509.28
2022-08-23T20:31:33.444Z,100513.94
2022-08-23T20:34:01.685Z,100510.31
2022-08-23T20:36:29.815Z,100505.16
2022-08-23T20:39:00.017Z,100514.25
2022-08-23T20:41:32.634Z,100522.84
2022-08-23T20:44:02.260Z,100519.50
2022-08-23T20:46:30.924Z,100517.56
2022-08-23T20:48:59.002Z,100510.63
2022-08-23T20:51:28.420Z,100512.31
2022-08-23T20:53:56.952Z,100513.22
2022-08-23T20:56:28.025Z,100518.50
2022-08-23T20:58:57.920Z,100517.38
2022-08-23T21:01:26.550Z,100521.56
2022-08-23T21:03:54.779Z,100518.13
2022-08-23T21:06:25.617Z,100527.13
2022-08-23T21:08:55.111Z,100521.53
2022-08-23T21:11:25.968Z,100535.19
2022-08-23T21:13:54.040Z,100537.94
2022-08-23T21:16:24.354Z,100521.72
2022-08-23T21:18:55.603Z,100530.09
2022-08-23T21:21:24.324Z,100525.16
2022-08-23T21:23:52.514Z,100536.09
2022-08-23T21:26:22.158Z,100534.47
2022-08-23T21:28:50.576Z,100531.44
2022-08-23T21:31:21.882Z,100532.47
2022-08-23T21:33:52.180Z,100528.06
2022-08-23T21:36:22.239Z,100534.28
2022-08-23T21:38:50.806Z,100541.56
2022-08-23T21:41:30.995Z,100534.47
2022-08-23T21:43:59.085Z,100536.47
2022-08-23T21:46:27.194Z,100531.47
2022-08-23T21:48:56.806Z,100538.03
2022-08-23T21:51:24.703Z,100543.22
2022-08-23T21:53:52.754Z,100541.66
2022-08-23T21:56:21.389Z,100535.38
2022-08-23T21:58:50.708Z,100530.69
2022-08-23T22:01:19.220Z,100531.44
2022-08-23T22:03:47.295Z,100534.25
2022-08-23T22:06:18.735Z,100537.59
2022-08-23T22:08:47.101Z,100525.63
2022-08-23T22:11:16.098Z,100534.34
2022-08-23T22:13:44.593Z,100537.97
2022-08-23T22:16:12.922Z,100530.28
2022-08-23T22:18:41.140Z,100535.34
2022-08-23T22:21:09.945Z,100532.50
2022-08-23T22:23:43.194Z,100521.34
2022-08-23T22:26:13.589Z,100528.47
2022-08-23T22:28:44.457Z,100524.53
2022-08-23T22:31:16.084Z,100525.88
2022-08-23T22:33:45.000Z,100526.81
2022-08-23T22:36:16.498Z,100530.69
2022-08-23T22:38:46.694Z,100530.34
2022-08-23T22:41:17.462Z,100521.78
2022-08-23T22:43:45.872Z,100522.31
2022-08-23T22:46:14.076Z,100522.00
2022-08-23T22:48:42.240Z,100522.53
2022-08-23T22:51:13.748Z,100521.78
2022-08-23T22:53:45.302Z,100524.19
2022-08-23T22:56:17.425Z,100531.47
2022-08-23T22:58:46.141Z,100521.78
2022-08-23T23:01:20.338Z,100517.38
2022-08-23T23:03:49.475Z,100525.69
2022-08-23T23:06:19.604Z,100526.84
2022-08-23T23:08:48.178Z,100518.22
2022-08-23T23:11:18.483Z,100525.38
2022-08-23T23:13:47.199Z,100534.31
2022-08-23T23:16:17.765Z,100527.53
2022-08-23T23:19:07.969Z,100538.22
2022-08-23T23:21:36.704Z,100542.69
2022-08-23T23:24:05.984Z,100539.66
2022-08-23T23:26:35.324Z,100541.63
2022-08-23T23:29:03.328Z,100542.41
2022-08-23T23:31:31.448Z,100554.16
2022-08-23T23:33:59.449Z,100555.69
2022-08-23T23:36:27.690Z,100556.91
2022-08-23T23:38:56.278Z,100559.81
2022-08-23T23:41:24.585Z,100563.88
2022-08-23T23:43:53.943Z,100565.94
2022-08-23T23:46:23.873Z,100562.25
2022-08-23T23:48:52.565Z,100562.78
2022-08-23T23:51:23.039Z,100563.00
2022-08-23T23:53:51.302Z,100566.34
2022-08-23T23:56:22.282Z,100561.66
2022-08-23T23:58:52.594Z,100553.38
